Terminal Aerodrome Forecast
Issued by NWS Jackson, MS

Home | Current Version | Previous Version | Text Only | Print | Product List | Glossary On
Versions: 1 2 3 4 5 6 7 8 9 10 11 12 13
000
FTUS44 KJAN 230500
TAFGWO
TAF
KGWO 230520Z 2306/2406 10008KT P6SM FEW030 SCT120 BKN250
     FM230700 11009KT P6SM BKN015 OVC080
     FM231130 11010KT 6SM -SHRA OVC009
     FM231300 12012KT 4SM -TSRA OVC007CB
     FM231830 19014G24KT P6SM VCSH SCT020 BKN040
     FM240000 20017G26KT P6SM FEW040=

USA.gov is the U.S. government's official web portal to all federal, state and local government web resources and services.